Terminal Aerodrome Forecast
Issued by NWS

Home | Current Version | Previous Version | Text Only | Print | Product List | Glossary On
Versions: 1 2 3 4 5 6 7 8 9 10 11 12 13 14 15 16
000
FTUS41 KPBZ 290109 AAA
TAFBVI
TAF AMD
KBVI 290109Z 2901/2924 VRB03KT P6SM BKN100
     FM290200 VRB05KT 5SM -SHRA VCTS OVC050CB
     FM290500 VRB05KT P6SM VCSH OVC050
     FM290700 24010KT 5SM -SHRA VCTS OVC030CB
     FM291100 25010KT P6SM -SHRA OVC015
     FM292000 28008KT P6SM VCSH BKN035
      AMD NOT SKED 2902/2912=

USA.gov is the U.S. government's official web portal to all federal, state and local government web resources and services.